Time;durP1;ratioP1;P1;durP2;ratioP2;P2;SDS_P1;SDS_P2;PMS_P1;PMS_P2;Temp;Humidity;BMP_temperature;BMP_pressure;BME280_temperature;BME280_humidity;BME280_pressure;Samples;Min_cycle;Max_cycle;Signal;HPM_P1;HPM_P2
2022/09/15 00:02:15;;;;;;;2.03;1.58;;;19.00;95.50;;;;;;5063379;28;20044;-70
2022/09/15 00:04:40;;;;;;;1.52;1.30;;;19.00;95.50;;;;;;5109638;28;20023;-70
2022/09/15 00:07:06;;;;;;;5.47;2.03;;;19.00;95.50;;;;;;5091155;28;20046;-70
2022/09/15 00:09:32;;;;;;;2.83;1.33;;;19.00;95.50;;;;;;5091230;28;20119;-70
2022/09/15 00:11:57;;;;;;;4.53;1.48;;;19.00;95.50;;;;;;5091547;28;20416;-70
2022/09/15 00:24:23;;;;;;;2.72;1.60;;;19.00;95.50;;;;;;5109778;28;20051;-70
2022/09/15 00:26:49;;;;;;;5.28;1.83;;;19.00;95.50;;;;;;5101105;28;20016;-69
2022/09/15 00:29:15;;;;;;;7.88;2.08;;;19.00;95.60;;;;;;5105062;28;20055;-70
2022/09/15 00:31:40;;;;;;;6.60;2.03;;;19.00;95.60;;;;;;5110866;28;20202;-69
2022/09/15 00:34:06;;;;;;;2.75;1.55;;;19.00;95.60;;;;;;5113392;28;20035;-69
2022/09/15 00:36:32;;;;;;;3.78;1.70;;;19.00;95.60;;;;;;5093642;28;20027;-71
2022/09/15 00:38:58;;;;;;;4.20;1.88;;;19.00;95.60;;;;;;5113203;28;20058;-69
2022/09/15 00:41:24;;;;;;;4.00;1.52;;;19.00;95.60;;;;;;5113332;28;20031;-70
2022/09/15 00:43:54;;;;;;;3.65;1.85;;;19.00;95.60;;;;;;5113387;28;20434;-70
2022/09/15 00:46:24;;;;;;;5.68;1.67;;;19.00;95.60;;;;;;5111875;28;20080;-69
2022/09/15 00:48:55;;;;;;;2.42;1.50;;;19.00;95.60;;;;;;5097242;28;20051;-69
2022/09/15 00:51:28;;;;;;;8.02;1.80;;;19.00;95.60;;;;;;5114467;28;20433;-70
2022/09/15 00:53:56;;;;;;;2.25;1.25;;;19.00;95.60;;;;;;5095326;28;20080;-70
2022/09/15 00:56:23;;;;;;;6.07;1.55;;;19.00;95.60;;;;;;5110502;28;20039;-69
2022/09/15 00:58:55;;;;;;;3.72;1.52;;;19.00;95.60;;;;;;5094250;28;20038;-69
2022/09/15 01:01:24;;;;;;;6.93;1.63;;;19.00;95.60;;;;;;5111944;28;20181;-70
2022/09/15 01:03:50;;;;;;;3.13;1.60;;;19.00;95.60;;;;;;5104282;28;20023;-69
2022/09/15 01:06:36;;;;;;;6.00;1.48;;;19.00;95.60;;;;;;5093528;28;20023;-69
2022/09/15 01:09:08;;;;;;;5.53;1.50;;;19.00;95.60;;;;;;5104903;28;20411;-70
2022/09/15 01:11:34;;;;;;;2.55;1.60;;;19.00;95.60;;;;;;5112297;28;20030;-71
2022/09/15 01:14:00;;;;;;;1.85;1.30;;;19.00;95.70;;;;;;5093828;28;20107;-69
2022/09/15 01:16:46;;;;;;;1.77;1.42;;;19.00;95.60;;;;;;5110606;28;20106;-70
2022/09/15 01:19:31;;;;;;;2.72;1.52;;;19.00;95.60;;;;;;5106776;28;20057;-70
2022/09/15 01:22:32;;;;;;;5.68;1.55;;;19.00;95.70;;;;;;5094027;28;20118;-70
2022/09/15 01:25:28;;;;;;;2.83;1.45;;;19.00;95.70;;;;;;5104826;28;20411;-70
2022/09/15 01:28:03;;;;;;;5.55;1.80;;;19.00;95.70;;;;;;5103155;28;20189;-70
2022/09/15 01:33:24;;;;;;;7.25;1.77;;;19.00;95.70;;;;;;5119717;22;20052;-67
2022/09/15 01:35:53;;;;;;;3.00;1.58;;;19.00;95.70;;;;;;5073555;28;20125;-68
2022/09/15 01:38:52;;;;;;;9.05;1.67;;;19.00;95.70;;;;;;5073492;28;20465;-67
2022/09/15 01:41:26;;;;;;;5.25;1.25;;;19.00;95.70;;;;;;5075039;28;20036;-67
2022/09/15 01:44:04;;;;;;;5.25;1.38;;;19.00;95.70;;;;;;5092376;28;20128;-67
2022/09/15 01:46:34;;;;;;;2.90;1.48;;;19.00;95.70;;;;;;5090210;28;20031;-67
2022/09/15 01:49:24;;;;;;;5.63;1.38;;;19.00;95.70;;;;;;5073447;28;20024;-67
2022/09/15 01:51:51;;;;;;;5.07;1.40;;;19.00;95.70;;;;;;5073020;28;20039;-67
2022/09/15 01:54:32;;;;;;;2.05;1.08;;;19.00;95.70;;;;;;5072872;28;20024;-69
2022/09/15 01:56:58;;;;;;;3.05;1.50;;;19.00;95.70;;;;;;5074505;28;20485;-67
2022/09/15 01:59:24;;;;;;;2.05;1.20;;;19.00;95.70;;;;;;5091882;28;20021;-67
2022/09/15 02:02:05;;;;;;;5.97;1.20;;;19.00;95.70;;;;;;5090164;28;20039;-67
2022/09/15 02:04:37;;;;;;;2.78;1.60;;;19.00;95.70;;;;;;5089935;28;20660;-71
2022/09/15 02:07:34;;;;;;;1.58;1.17;;;19.00;95.70;;;;;;5094679;28;20668;-67
2022/09/15 02:10:29;;;;;;;3.22;1.40;;;19.00;95.70;;;;;;5081612;28;20028;-68
2022/09/15 02:13:05;;;;;;;2.97;1.05;;;19.00;95.70;;;;;;5001619;28;20754;-68
2022/09/15 02:15:41;;;;;;;2.92;1.27;;;19.00;95.70;;;;;;5003653;28;20499;-67
2022/09/15 02:18:09;;;;;;;7.18;1.38;;;19.00;95.70;;;;;;5015764;28;20038;-68
2022/09/15 02:20:37;;;;;;;3.88;1.30;;;19.00;95.70;;;;;;5016687;28;20533;-67
2022/09/15 02:23:12;;;;;;;2.10;1.35;;;18.90;95.70;;;;;;5016222;28;20481;-68
2022/09/15 02:25:43;;;;;;;1.95;1.08;;;19.00;95.70;;;;;;4999947;28;20018;-68
2022/09/15 02:28:12;;;;;;;6.53;1.35;;;19.00;95.70;;;;;;5023588;28;20030;-67
2022/09/15 02:30:40;;;;;;;2.83;1.42;;;19.00;95.70;;;;;;5016351;28;20052;-69
2022/09/15 02:33:10;;;;;;;1.70;1.30;;;19.00;95.70;;;;;;5020385;28;20037;-68
2022/09/15 02:35:37;;;;;;;9.10;1.35;;;19.00;95.70;;;;;;5016522;28;20042;-68
2022/09/15 02:38:07;;;;;;;1.52;1.25;;;19.00;95.70;;;;;;5016206;28;20415;-67
2022/09/15 02:40:34;;;;;;;3.42;1.52;;;18.90;95.70;;;;;;5023942;28;20379;-68
2022/09/15 02:43:01;;;;;;;4.47;1.40;;;18.90;95.70;;;;;;5016919;28;20046;-68
2022/09/15 02:45:29;;;;;;;3.33;1.10;;;18.90;95.70;;;;;;4999653;28;20022;-68
2022/09/15 02:47:56;;;;;;;1.70;1.30;;;19.00;95.70;;;;;;4998551;28;20040;-67
2022/09/15 02:50:25;;;;;;;3.35;1.60;;;19.00;95.70;;;;;;5080971;28;20050;-68
2022/09/15 02:52:52;;;;;;;2.15;1.45;;;19.00;95.70;;;;;;5090577;28;20049;-67
2022/09/15 02:55:17;;;;;;;5.25;1.30;;;19.00;95.70;;;;;;5088993;28;20024;-67
2022/09/15 02:57:43;;;;;;;3.05;1.45;;;18.90;95.70;;;;;;5089589;28;20103;-67
2022/09/15 03:00:13;;;;;;;6.85;1.58;;;19.00;95.70;;;;;;5071623;28;20508;-67
2022/09/15 03:02:44;;;;;;;6.00;1.42;;;18.90;95.70;;;;;;5089570;28;20109;-68
2022/09/15 03:05:12;;;;;;;2.97;1.40;;;18.90;95.70;;;;;;5082698;28;20054;-68
2022/09/15 03:07:37;;;;;;;8.18;1.80;;;18.90;95.70;;;;;;5071401;28;20024;-68
2022/09/15 03:10:06;;;;;;;4.88;1.42;;;18.90;95.70;;;;;;5090056;28;20374;-67
2022/09/15 03:12:40;;;;;;;2.72;1.63;;;18.90;95.70;;;;;;5089976;28;20248;-68
2022/09/15 03:15:08;;;;;;;3.50;1.38;;;18.90;95.70;;;;;;5090053;28;20103;-69
2022/09/15 03:17:35;;;;;;;3.33;1.50;;;18.90;95.70;;;;;;5095526;28;20020;-68
2022/09/15 03:20:02;;;;;;;5.50;1.27;;;18.90;95.70;;;;;;5072441;28;20025;-67
2022/09/15 03:22:27;;;;;;;4.07;1.27;;;18.90;95.70;;;;;;5071886;28;20437;-68
2022/09/15 03:24:53;;;;;;;6.00;1.55;;;18.90;95.70;;;;;;5090244;28;20031;-67
2022/09/15 03:27:18;;;;;;;4.15;1.30;;;18.90;95.70;;;;;;5071737;28;20389;-67
2022/09/15 03:29:44;;;;;;;2.35;1.25;;;18.90;95.70;;;;;;5089580;28;20032;-67
2022/09/15 03:32:10;;;;;;;2.03;1.48;;;18.90;95.70;;;;;;5091215;28;20092;-68
2022/09/15 03:34:35;;;;;;;2.78;1.50;;;18.90;95.70;;;;;;5095041;28;20032;-67
2022/09/15 03:37:01;;;;;;;2.72;1.35;;;18.80;95.70;;;;;;5089640;28;20116;-67
2022/09/15 03:39:27;;;;;;;5.78;1.45;;;18.80;95.70;;;;;;5089799;28;20526;-67
2022/09/15 03:41:52;;;;;;;3.22;1.30;;;18.90;95.70;;;;;;5072025;28;20074;-67
2022/09/15 03:44:18;;;;;;;6.78;1.23;;;18.80;95.70;;;;;;5071418;28;20473;-67
2022/09/15 03:46:44;;;;;;;1.38;1.20;;;18.90;95.70;;;;;;5071237;28;20023;-67
2022/09/15 03:49:09;;;;;;;3.78;1.63;;;18.90;95.70;;;;;;5089004;28;20418;-67
2022/09/15 03:51:35;;;;;;;7.00;1.35;;;18.90;95.70;;;;;;5089566;28;20422;-67
2022/09/15 03:54:00;;;;;;;2.58;1.40;;;18.80;95.70;;;;;;5071571;28;20034;-67
2022/09/15 03:56:31;;;;;;;3.28;1.38;;;18.80;95.70;;;;;;5070367;28;20030;-67
2022/09/15 03:59:00;;;;;;;3.15;1.60;;;18.90;95.70;;;;;;5089938;28;20017;-67
2022/09/15 04:01:26;;;;;;;6.60;1.40;;;18.90;95.70;;;;;;5071845;28;20020;-69
2022/09/15 04:03:52;;;;;;;2.85;1.30;;;18.90;95.70;;;;;;5089247;28;20036;-67
2022/09/15 04:06:20;;;;;;;3.38;1.70;;;18.90;95.70;;;;;;5090565;28;20074;-67
2022/09/15 04:08:46;;;;;;;3.75;1.40;;;18.90;95.70;;;;;;5075423;28;20024;-67
2022/09/15 04:11:13;;;;;;;3.33;1.60;;;18.90;95.70;;;;;;5093211;28;20479;-67
2022/09/15 04:13:40;;;;;;;3.92;1.63;;;18.90;95.70;;;;;;5093425;28;20373;-67
2022/09/15 04:16:09;;;;;;;5.60;1.48;;;18.90;95.70;;;;;;5074419;28;20028;-67
2022/09/15 04:18:35;;;;;;;2.88;1.40;;;18.90;95.70;;;;;;5093171;28;20108;-67
2022/09/15 04:21:04;;;;;;;3.38;1.58;;;18.90;95.70;;;;;;5093399;28;20102;-67
2022/09/15 04:23:30;;;;;;;9.30;1.87;;;18.90;95.70;;;;;;5074744;28;20032;-67
2022/09/15 04:26:01;;;;;;;10.13;1.52;;;18.90;95.70;;;;;;5092994;28;20024;-66
2022/09/15 04:28:32;;;;;;;3.13;1.50;;;18.80;95.70;;;;;;5093442;28;20020;-68
2022/09/15 04:31:09;;;;;;;8.88;1.52;;;18.80;95.70;;;;;;5074589;28;20024;-69
2022/09/15 04:33:37;;;;;;;1.60;1.30;;;18.90;95.70;;;;;;5092170;28;20034;-67
2022/09/15 04:36:08;;;;;;;1.15;1.05;;;18.90;95.70;;;;;;5073831;28;20056;-67
2022/09/15 04:38:34;;;;;;;4.75;1.67;;;18.90;95.70;;;;;;5092950;28;20422;-67
2022/09/15 04:41:01;;;;;;;3.05;1.70;;;18.90;95.70;;;;;;5092838;28;20027;-68
2022/09/15 04:43:27;;;;;;;3.25;1.60;;;18.90;95.70;;;;;;5092547;28;20024;-67
2022/09/15 04:45:53;;;;;;;1.52;1.25;;;18.90;95.70;;;;;;5074106;28;20017;-66
2022/09/15 04:48:20;;;;;;;3.00;1.20;;;18.90;95.70;;;;;;5095604;28;20028;-67
2022/09/15 04:50:46;;;;;;;8.80;1.38;;;18.80;95.70;;;;;;5092357;28;20063;-67
2022/09/15 04:53:11;;;;;;;3.67;1.30;;;18.80;95.70;;;;;;5092960;28;20477;-67
2022/09/15 04:55:37;;;;;;;2.50;1.50;;;18.80;95.70;;;;;;5074114;28;20049;-67
2022/09/15 04:58:03;;;;;;;4.57;1.65;;;18.90;95.70;;;;;;5092320;28;20366;-67
2022/09/15 05:00:30;;;;;;;2.05;1.20;;;18.80;95.70;;;;;;5092397;28;20024;-68
2022/09/15 05:02:57;;;;;;;1.95;1.40;;;18.80;95.70;;;;;;5073130;28;20036;-67
2022/09/15 05:05:24;;;;;;;4.65;1.70;;;18.90;95.80;;;;;;5092265;28;20102;-67
2022/09/15 05:07:50;;;;;;;2.65;1.80;;;18.90;95.70;;;;;;5092329;28;20020;-67
2022/09/15 05:10:16;;;;;;;3.67;1.42;;;18.90;95.70;;;;;;5092225;28;20035;-67
2022/09/15 05:12:41;;;;;;;6.10;1.60;;;18.80;95.70;;;;;;5092507;28;20017;-67
2022/09/15 05:15:07;;;;;;;3.90;1.65;;;18.80;95.70;;;;;;5091908;28;20081;-67
2022/09/15 05:17:33;;;;;;;3.85;1.70;;;18.80;95.70;;;;;;5091411;28;20028;-67
2022/09/15 05:19:59;;;;;;;2.47;1.92;;;18.80;95.70;;;;;;5093698;28;20538;-67
2022/09/15 05:22:28;;;;;;;3.55;1.63;;;18.90;95.70;;;;;;5075501;28;20031;-67
2022/09/15 05:24:54;;;;;;;2.75;1.48;;;18.80;95.70;;;;;;5093981;28;20484;-67
2022/09/15 05:27:19;;;;;;;4.03;1.60;;;18.80;95.70;;;;;;5092925;28;20076;-67
2022/09/15 05:29:45;;;;;;;2.47;1.60;;;18.80;95.70;;;;;;5093261;28;20055;-68
2022/09/15 05:32:11;;;;;;;2.95;1.38;;;18.80;95.70;;;;;;5075237;28;20016;-67
2022/09/15 05:34:36;;;;;;;3.50;1.83;;;18.80;95.70;;;;;;5091475;28;20073;-67
2022/09/15 05:37:04;;;;;;;1.58;1.27;;;18.90;95.70;;;;;;5091361;28;20107;-67
2022/09/15 05:39:30;;;;;;;4.65;1.52;;;18.90;95.70;;;;;;5065284;28;20542;-67
2022/09/15 05:41:55;;;;;;;1.65;1.20;;;18.80;95.70;;;;;;5092691;28;20024;-67
2022/09/15 05:44:21;;;;;;;4.65;1.58;;;18.80;95.70;;;;;;5091814;28;20028;-67
2022/09/15 05:46:47;;;;;;;4.25;1.70;;;18.80;95.70;;;;;;5072757;28;20016;-67
2022/09/15 05:49:13;;;;;;;3.45;1.50;;;18.80;95.70;;;;;;5072157;28;20028;-67
2022/09/15 05:51:39;;;;;;;1.88;1.52;;;18.80;95.70;;;;;;5091337;28;20035;-67
2022/09/15 05:54:13;;;;;;;2.70;1.50;;;18.80;95.70;;;;;;5091211;28;20405;-67
2022/09/15 05:56:39;;;;;;;3.78;1.55;;;18.80;95.70;;;;;;5089021;28;20081;-67
2022/09/15 05:59:04;;;;;;;7.45;1.83;;;18.90;95.70;;;;;;5072823;28;20111;-67
2022/09/15 06:01:30;;;;;;;4.05;1.63;;;18.80;95.70;;;;;;5090757;28;20480;-67
2022/09/15 06:03:58;;;;;;;1.80;1.48;;;18.80;95.70;;;;;;5090447;28;20575;-67
2022/09/15 06:06:24;;;;;;;5.40;1.60;;;18.80;95.70;;;;;;5090159;28;20019;-67
2022/09/15 06:08:54;;;;;;;3.08;1.48;;;18.90;95.70;;;;;;5090965;28;20532;-67
2022/09/15 06:11:25;;;;;;;2.75;1.40;;;18.90;95.70;;;;;;5090680;28;20035;-67
2022/09/15 06:13:51;;;;;;;6.45;1.73;;;18.80;95.70;;;;;;5091066;28;20048;-67
2022/09/15 06:16:19;;;;;;;3.25;1.42;;;18.80;95.70;;;;;;5090133;28;20062;-67
2022/09/15 06:18:45;;;;;;;1.40;1.27;;;18.90;95.70;;;;;;5089856;28;20392;-67
2022/09/15 06:21:20;;;;;;;4.03;1.70;;;18.90;95.70;;;;;;5095067;28;20038;-67
2022/09/15 06:23:51;;;;;;;8.50;1.63;;;18.90;95.70;;;;;;5111566;28;20058;-67
2022/09/15 06:26:18;;;;;;;5.10;1.60;;;18.80;95.70;;;;;;5100783;28;20566;-68
2022/09/15 06:28:49;;;;;;;1.77;1.65;;;18.80;95.70;;;;;;5098732;28;20229;-67
2022/09/15 06:31:15;;;;;;;2.15;1.33;;;18.80;95.70;;;;;;5099094;28;20024;-67
2022/09/15 06:33:47;;;;;;;3.10;1.48;;;18.90;95.80;;;;;;5102735;28;20040;-67
2022/09/15 06:36:15;;;;;;;4.82;1.50;;;18.80;95.70;;;;;;5110408;28;20200;-68
2022/09/15 06:38:41;;;;;;;2.95;1.00;;;18.80;95.70;;;;;;5099887;28;20145;-67
2022/09/15 06:41:07;;;;;;;2.60;1.40;;;18.90;95.70;;;;;;5108214;28;20469;-67
2022/09/15 06:43:33;;;;;;;2.17;1.30;;;18.80;95.70;;;;;;5093445;28;20118;-67
2022/09/15 06:46:08;;;;;;;2.53;1.42;;;18.90;95.70;;;;;;5095520;28;20477;-68
2022/09/15 06:48:35;;;;;;;2.80;1.40;;;18.90;95.70;;;;;;5082240;28;20051;-68
2022/09/15 06:51:01;;;;;;;3.63;1.40;;;18.90;96.10;;;;;;5106219;28;20038;-67
2022/09/15 06:53:31;;;;;;;5.03;1.42;;;18.90;95.70;;;;;;5100681;28;20028;-68
2022/09/15 06:56:07;;;;;;;;;;;18.80;95.70;;;;;;5086259;28;20023;-67
2022/09/15 06:58:34;;;;;;;4.72;1.55;;;18.90;95.70;;;;;;5108693;28;19903;-68
2022/09/15 07:01:02;;;;;;;3.67;1.33;;;18.90;95.70;;;;;;5097704;28;20551;-68
2022/09/15 07:03:29;;;;;;;1.58;1.23;;;18.90;95.70;;;;;;5076067;28;20039;-68
2022/09/15 07:05:57;;;;;;;2.45;1.77;;;18.90;95.70;;;;;;5110344;28;20093;-67
2022/09/15 07:08:23;;;;;;;3.28;1.38;;;18.90;95.70;;;;;;5092577;28;20051;-68
2022/09/15 07:10:49;;;;;;;2.00;1.35;;;18.90;95.70;;;;;;5100604;28;20043;-67
2022/09/15 07:13:14;;;;;;;1.30;1.20;;;18.90;95.70;;;;;;5094040;28;20129;-68
2022/09/15 07:15:40;;;;;;;2.63;1.52;;;18.90;95.70;;;;;;5100204;28;20016;-67
2022/09/15 07:18:06;;;;;;;2.65;1.30;;;18.90;95.70;;;;;;5106028;28;20468;-68
2022/09/15 07:20:33;;;;;;;4.00;1.20;;;18.90;95.70;;;;;;5091968;28;20027;-67
2022/09/15 07:23:01;;;;;;;3.35;1.40;;;18.90;95.70;;;;;;5093101;28;20043;-67
2022/09/15 07:25:27;;;;;;;5.00;1.50;;;18.90;95.70;;;;;;5092273;28;20042;-68
2022/09/15 07:27:52;;;;;;;1.40;1.05;;;18.90;95.70;;;;;;5102219;28;20027;-67
2022/09/15 07:30:18;;;;;;;3.15;1.48;;;18.90;95.70;;;;;;5111804;28;20478;-67
2022/09/15 07:32:44;;;;;;;2.35;1.33;;;18.90;95.70;;;;;;5092176;28;20023;-67
2022/09/15 07:35:09;;;;;;;2.88;1.30;;;18.90;95.70;;;;;;5110086;28;20088;-68
2022/09/15 07:37:35;;;;;;;5.40;1.30;;;18.90;95.70;;;;;;5093565;28;20024;-67
2022/09/15 07:40:01;;;;;;;3.58;1.38;;;18.90;95.70;;;;;;5093146;28;20020;-67
2022/09/15 07:42:27;;;;;;;5.88;1.40;;;18.90;95.70;;;;;;5095473;28;20504;-68
2022/09/15 07:44:52;;;;;;;3.15;1.20;;;18.90;95.70;;;;;;5102429;28;20016;-68
2022/09/15 07:47:35;;;;;;;2.10;1.10;;;18.90;95.70;;;;;;5102868;28;20150;-67
2022/09/15 07:50:01;;;;;;;1.63;1.17;;;19.00;95.70;;;;;;5089539;28;20030;-68
2022/09/15 07:52:29;;;;;;;1.92;1.42;;;18.90;95.70;;;;;;5106178;28;20091;-68
2022/09/15 07:54:55;;;;;;;2.53;1.30;;;18.90;95.70;;;;;;5107509;28;20107;-68
2022/09/15 07:57:21;;;;;;;2.63;1.30;;;19.00;95.60;;;;;;5098248;28;20108;-67
2022/09/15 07:59:46;;;;;;;2.85;1.23;;;19.00;95.60;;;;;;5111631;28;20042;-68
2022/09/15 08:02:20;;;;;;;3.38;1.20;;;19.00;95.60;;;;;;5103618;28;20016;-67
2022/09/15 08:04:47;;;;;;;1.58;1.15;;;19.00;95.70;;;;;;5095408;28;20031;-68
2022/09/15 08:07:13;;;;;;;10.02;1.20;;;19.00;95.70;;;;;;5097268;28;20026;-68
2022/09/15 08:09:39;;;;;;;5.13;1.27;;;19.00;95.70;;;;;;5097074;28;20118;-67
2022/09/15 08:12:06;;;;;;;1.80;1.33;;;19.00;95.70;;;;;;5115791;28;20028;-68
2022/09/15 08:14:33;;;;;;;1.67;1.23;;;19.00;95.70;;;;;;5114636;28;20024;-68
2022/09/15 08:17:08;;;;;;;5.15;1.40;;;19.10;95.70;;;;;;5089311;28;20043;-68
2022/09/15 08:19:34;;;;;;;1.88;1.20;;;19.10;95.70;;;;;;5115154;28;20138;-68
2022/09/15 08:22:04;;;;;;;1.20;1.10;;;19.10;95.60;;;;;;5097758;28;20043;-68
2022/09/15 08:24:30;;;;;;;1.02;0.93;;;19.20;95.70;;;;;;5098599;28;20152;-68
2022/09/15 08:26:55;;;;;;;1.50;1.27;;;19.20;95.70;;;;;;5096834;28;20485;-68
2022/09/15 08:29:21;;;;;;;7.07;1.17;;;19.20;95.60;;;;;;5098464;28;20059;-68
2022/09/15 08:50:11;;;;;;;1.55;0.90;;;19.30;95.60;;;;;;5095693;28;20146;-67
2022/09/15 09:13:44;;;;;;;1.25;0.98;;;19.40;95.60;;;;;;5016720;28;20029;-67
2022/09/15 09:40:02;;;;;;;2.58;1.20;;;19.40;95.60;;;;;;4953249;28;20024;-67
2022/09/15 10:48:28;;;;;;;0.80;0.80;;;19.40;95.60;;;;;;5011924;28;20491;-68
2022/09/15 10:54:49;;;;;;;1.75;1.17;;;19.40;95.60;;;;;;4970667;28;20118;-67
2022/09/15 10:57:41;;;;;;;0.70;0.70;;;19.40;95.60;;;;;;4974616;28;20499;-67
2022/09/15 11:00:29;;;;;;;1.30;0.90;;;19.40;95.50;;;;;;5015001;28;20105;-67
2022/09/15 11:17:30;;;;;;;2.05;1.17;;;19.40;95.50;;;;;;4952413;28;20062;-68
2022/09/15 11:27:21;;;;;;;1.65;1.30;;;19.40;95.60;;;;;;4909209;28;20055;-68
2022/09/15 11:30:13;;;;;;;3.40;1.40;;;19.40;95.50;;;;;;4912104;29;20490;-68
2022/09/15 11:33:09;;;;;;;2.45;1.33;;;19.40;95.50;;;;;;4908919;29;20115;-67
2022/09/15 12:19:58;;;;;;;;;;;;;;;;;;;;;
2022/09/15 12:29:25;;;;;;;7.68;1.75;;;19.60;95.60;;;;;;4940143;28;20072;-69
2022/09/15 12:32:29;;;;;;;6.13;1.35;;;19.60;95.60;;;;;;4950525;29;20123;-67
2022/09/15 12:49:26;;;;;;;3.00;1.52;;;19.60;95.80;;;;;;4897823;29;20036;-67
2022/09/15 13:12:36;;;;;;;0.77;0.77;;;19.50;96.00;;;;;;5036568;28;20032;-66
2022/09/15 13:15:06;;;;;;;1.92;0.60;;;19.50;96.00;;;;;;5063478;28;20089;-66
2022/09/15 13:17:32;;;;;;;0.60;0.60;;;19.50;96.00;;;;;;5068344;28;20039;-66
2022/09/15 13:20:07;;;;;;;2.10;0.60;;;19.50;96.00;;;;;;5097580;28;20064;-66
2022/09/15 13:22:42;;;;;;;0.57;0.57;;;19.50;96.00;;;;;;5077504;28;20108;-66
2022/09/15 13:25:14;;;;;;;0.50;0.40;;;19.50;96.00;;;;;;5103079;28;20032;-66
2022/09/15 13:27:44;;;;;;;0.90;0.50;;;19.50;96.00;;;;;;5104678;28;20024;-66
2022/09/15 13:30:28;;;;;;;0.60;0.60;;;19.50;96.00;;;;;;5104590;28;20020;-66
2022/09/15 13:54:05;;;;;;;0.57;0.45;;;19.50;96.00;;;;;;5136065;27;20026;-66
2022/09/15 13:56:35;;;;;;;0.47;0.43;;;19.50;96.00;;;;;;5031323;28;20143;-66
2022/09/15 13:59:09;;;;;;;0.60;0.60;;;19.50;96.00;;;;;;5032635;28;20397;-66
2022/09/15 14:01:56;;;;;;;;;;;;;;;;;;;;;
2022/09/15 14:14:52;;;;;;;0.73;0.73;;;19.40;96.00;;;;;;4993985;28;20050;-66
2022/09/15 14:17:27;;;;;;;0.80;0.80;;;19.40;96.00;;;;;;4989298;28;20117;-66
2022/09/15 14:19:56;;;;;;;0.88;0.80;;;19.40;95.90;;;;;;4989458;28;20037;-66
2022/09/15 14:22:27;;;;;;;1.05;1.02;;;19.40;95.90;;;;;;4989596;28;20468;-66
2022/09/15 14:24:55;;;;;;;1.65;0.93;;;19.40;95.90;;;;;;4988971;28;20034;-67
2022/09/15 14:27:30;;;;;;;1.30;1.20;;;19.40;95.90;;;;;;4987959;28;20043;-66
2022/09/15 14:30:00;;;;;;;1.58;1.08;;;19.40;95.90;;;;;;4989227;28;20043;-66
2022/09/15 14:32:27;;;;;;;1.53;1.40;;;19.40;95.90;;;;;;5000675;28;20093;-66
2022/09/15 14:34:57;;;;;;;1.50;1.40;;;19.40;95.90;;;;;;5058480;28;20339;-66
2022/09/15 14:37:27;;;;;;;1.52;1.23;;;19.40;95.90;;;;;;5096825;28;20026;-66
2022/09/15 14:39:57;;;;;;;;;;;19.40;95.90;;;;;;5079758;28;20142;-66
2022/09/15 14:42:29;;;;;;;3.88;1.92;;;19.40;95.90;;;;;;5087596;28;20357;-66
2022/09/15 14:45:09;;;;;;;5.43;1.70;;;19.40;95.90;;;;;;5078151;28;20048;-67
2022/09/15 14:47:35;;;;;;;10.35;2.20;;;19.40;95.80;;;;;;5078804;28;20385;-66
2022/09/15 14:50:15;;;;;;;3.33;1.40;;;19.40;95.80;;;;;;5097786;28;20062;-67
2022/09/15 14:53:03;;;;;;;1.88;1.30;;;19.40;95.80;;;;;;5099507;28;20424;-66
2022/09/15 14:55:44;;;;;;;2.47;1.20;;;19.40;95.80;;;;;;5087170;28;22384;-66
2022/09/15 14:58:39;;;;;;;3.65;1.10;;;19.40;95.80;;;;;;5096639;28;20081;-66
2022/09/15 15:01:23;;;;;;;2.60;1.23;;;19.40;95.70;;;;;;5076552;28;20534;-66
2022/09/15 15:04:38;;;;;;;2.05;1.20;;;19.40;95.70;;;;;;5071375;28;20362;-66
2022/09/15 15:07:13;;;;;;;1.88;1.58;;;19.40;95.70;;;;;;5038765;28;20092;-66
2022/09/15 15:10:04;;;;;;;4.32;1.50;;;19.40;95.70;;;;;;5056131;28;20131;-66
2022/09/15 15:12:36;;;;;;;2.67;1.52;;;19.30;95.60;;;;;;5054783;28;20086;-66
2022/09/15 15:15:03;;;;;;;4.85;1.40;;;19.30;95.60;;;;;;5052296;28;20119;-66
2022/09/15 15:17:36;;;;;;;2.97;1.65;;;19.30;95.60;;;;;;5033833;28;20025;-66
2022/09/15 15:20:29;;;;;;;2.45;1.15;;;19.30;95.60;;;;;;5001423;28;20038;-66
2022/09/15 15:26:33;;;;;;;2.42;1.30;;;19.30;95.60;;;;;;4931761;29;20095;-66
2022/09/15 15:28:59;;;;;;;2.00;1.10;;;19.30;95.60;;;;;;4981234;28;20399;-71
2022/09/15 15:31:26;;;;;;;4.65;1.70;;;19.30;95.60;;;;;;4995684;28;20038;-71
2022/09/15 15:33:57;;;;;;;1.30;1.20;;;19.30;95.50;;;;;;4983415;28;20018;-70
2022/09/15 15:36:25;;;;;;;2.42;1.30;;;19.20;95.40;;;;;;4998373;28;20034;-70
2022/09/15 15:38:59;;;;;;;4.78;1.30;;;19.20;95.70;;;;;;5013670;28;20040;-70
2022/09/15 15:41:26;;;;;;;4.28;1.48;;;19.20;95.20;;;;;;5014526;28;20033;-70
2022/09/15 15:44:02;;;;;;;4.03;1.52;;;19.20;95.00;;;;;;5018784;28;20037;-70
2022/09/15 15:47:09;;;;;;;5.45;1.75;;;19.10;94.90;;;;;;5017508;28;20344;-71
2022/09/15 15:49:35;;;;;;;3.63;1.90;;;19.10;94.80;;;;;;5016096;28;20030;-71
2022/09/15 15:52:01;;;;;;;2.72;1.27;;;19.10;94.70;;;;;;5009337;28;20099;-71
2022/09/15 15:54:27;;;;;;;5.53;1.75;;;19.10;94.60;;;;;;5018017;28;20030;-71
2022/09/15 15:56:52;;;;;;;3.45;1.58;;;19.10;94.50;;;;;;5024505;28;20033;-71
2022/09/15 15:59:18;;;;;;;2.70;1.88;;;19.10;94.40;;;;;;5079009;28;20271;-70
2022/09/15 16:01:47;;;;;;;5.28;1.67;;;19.10;94.20;;;;;;5101281;28;20023;-70
2022/09/15 16:04:13;;;;;;;5.10;1.35;;;19.00;94.10;;;;;;5105300;28;20093;-70
2022/09/15 16:06:40;;;;;;;6.10;1.77;;;19.00;93.90;;;;;;5104307;28;20063;-70
2022/09/15 16:09:06;;;;;;;3.75;1.38;;;19.00;93.80;;;;;;5101625;28;20107;-70
2022/09/15 16:11:32;;;;;;;1.95;1.50;;;19.00;93.70;;;;;;5100839;28;20516;-70
2022/09/15 16:13:58;;;;;;;5.28;1.85;;;18.90;93.60;;;;;;5101295;28;20043;-70
2022/09/15 16:16:25;;;;;;;4.35;1.50;;;19.00;93.60;;;;;;5101060;28;20125;-69
2022/09/15 16:18:51;;;;;;;3.85;1.67;;;19.00;93.40;;;;;;5102985;28;20016;-68
2022/09/15 16:21:31;;;;;;;2.50;1.63;;;18.90;93.30;;;;;;5105039;28;20148;-69
2022/09/15 16:23:57;;;;;;;1.73;1.52;;;18.90;93.20;;;;;;5100039;28;20043;-70
2022/09/15 16:26:23;;;;;;;4.38;1.55;;;18.90;93.10;;;;;;5095753;28;20040;-69
2022/09/15 16:28:49;;;;;;;3.67;1.80;;;18.90;93.10;;;;;;5093461;28;20224;-69
2022/09/15 16:31:14;;;;;;;3.40;1.63;;;18.90;93.10;;;;;;5104463;28;20023;-69
2022/09/15 16:33:41;;;;;;;5.25;1.75;;;18.80;93.10;;;;;;5103905;28;20023;-67
2022/09/15 16:36:14;;;;;;;7.95;2.20;;;18.80;93.00;;;;;;5100106;28;20036;-68
2022/09/15 16:38:41;;;;;;;2.40;1.60;;;18.80;92.90;;;;;;5101279;28;20056;-68
2022/09/15 16:41:18;;;;;;;2.75;1.63;;;18.80;92.90;;;;;;5102745;28;20423;-69
2022/09/15 16:43:45;;;;;;;1.77;1.60;;;18.80;92.90;;;;;;5100473;28;20036;-68
2022/09/15 16:46:12;;;;;;;2.80;1.83;;;18.80;92.90;;;;;;5103310;28;20431;-68
2022/09/15 16:48:39;;;;;;;6.93;1.90;;;18.70;92.90;;;;;;5104301;28;20127;-68
2022/09/15 16:51:09;;;;;;;2.08;1.75;;;18.70;92.80;;;;;;5101039;28;20526;-68
2022/09/15 16:53:39;;;;;;;3.35;1.77;;;18.70;92.80;;;;;;5101144;28;20066;-68
2022/09/15 16:56:06;;;;;;;4.07;1.90;;;18.70;92.80;;;;;;5091749;28;20028;-68
2022/09/15 16:58:32;;;;;;;3.47;1.95;;;18.70;92.80;;;;;;5096979;28;20103;-68
2022/09/15 17:00:58;;;;;;;2.92;1.70;;;18.70;92.80;;;;;;5103609;28;20035;-69
2022/09/15 17:03:25;;;;;;;6.45;2.17;;;18.70;92.70;;;;;;5103991;28;20099;-68
2022/09/15 17:05:53;;;;;;;2.40;2.10;;;18.70;92.70;;;;;;5101977;28;20037;-68
2022/09/15 17:08:21;;;;;;;2.58;1.80;;;18.70;92.70;;;;;;5100538;28;20035;-68
2022/09/15 17:10:48;;;;;;;2.20;1.67;;;18.60;92.70;;;;;;5101719;28;20023;-68
2022/09/15 17:13:16;;;;;;;2.58;1.95;;;18.60;92.70;;;;;;5099986;28;20074;-68
2022/09/15 17:15:42;;;;;;;2.30;1.77;;;18.60;92.70;;;;;;5100665;28;20016;-69
2022/09/15 17:18:08;;;;;;;3.35;2.28;;;18.60;92.70;;;;;;5102765;28;20023;-68
2022/09/15 17:20:36;;;;;;;9.50;2.05;;;18.60;92.70;;;;;;5104123;28;20020;-68
2022/09/15 17:23:12;;;;;;;4.70;2.30;;;18.60;92.60;;;;;;5100795;28;20516;-68
2022/09/15 17:25:47;;;;;;;6.60;1.88;;;18.50;92.60;;;;;;5100738;28;20055;-65
2022/09/15 17:28:13;;;;;;;4.75;2.22;;;18.50;92.60;;;;;;5102750;28;20111;-65
2022/09/15 17:30:39;;;;;;;3.50;2.00;;;18.50;92.60;;;;;;5096893;28;20513;-65
2022/09/15 17:33:09;;;;;;;6.80;2.17;;;18.50;92.60;;;;;;5109872;28;20038;-65
2022/09/15 17:35:35;;;;;;;;;;;18.60;92.60;;;;;;5122658;27;20145;-65
2022/09/15 17:38:02;;;;;;;5.93;2.25;;;18.50;92.60;;;;;;5094420;28;19986;-65
2022/09/15 17:40:28;;;;;;;3.50;2.17;;;18.50;92.60;;;;;;5128200;27;20070;-65
2022/09/15 17:42:54;;;;;;;3.80;2.25;;;18.50;92.60;;;;;;5095532;28;20428;-65
2022/09/15 17:45:29;;;;;;;5.68;2.58;;;18.50;92.70;;;;;;5126694;27;20034;-67
2022/09/15 17:47:56;;;;;;;8.00;3.20;;;18.50;92.70;;;;;;5105486;27;20377;-65
2022/09/15 17:50:23;;;;;;;4.38;2.70;;;18.50;92.70;;;;;;5109110;28;20023;-65
2022/09/15 17:52:49;;;;;;;5.95;2.33;;;18.50;92.80;;;;;;5120081;27;20075;-65
2022/09/15 17:55:16;;;;;;;4.43;2.60;;;18.50;92.80;;;;;;5116460;27;20098;-65